Time;durP1;ratioP1;P1;durP2;ratioP2;P2;SDS_P1;SDS_P2;PMS_P1;PMS_P2;Temp;Humidity;BMP_temperature;BMP_pressure;BME280_temperature;BME280_humidity;BME280_pressure;Samples;Min_cycle;Max_cycle;Signal;HPM_P1;HPM_P2
2022/01/01 00:00:39;;;;;;;36.17;23.70;;;;;;;;;;5050929;28;20040;-58
2022/01/01 00:03:04;;;;;;;34.67;21.83;;;;;;;;;;5051370;28;20059;-58
2022/01/01 00:05:29;;;;;;;37.13;23.77;;;;;;;;;;5051625;28;20048;-59
2022/01/01 00:07:55;;;;;;;41.28;22.73;;;;;;;;;;5050432;28;20173;-57
2022/01/01 00:10:21;;;;;;;39.10;24.75;;;;;;;;;;5051849;28;20059;-59
2022/01/01 00:12:47;;;;;;;44.70;23.60;;;;;;;;;;5051312;28;20064;-57
2022/01/01 00:15:12;;;;;;;42.05;22.90;;;;;;;;;;5051818;28;20170;-57
2022/01/01 00:17:38;;;;;;;35.30;20.90;;;;;;;;;;5051647;28;20112;-59
2022/01/01 00:20:03;;;;;;;41.15;22.50;;;;;;;;;;5052123;28;20028;-58
2022/01/01 00:22:28;;;;;;;36.60;22.65;;;;;;;;;;5051298;28;20159;-59
2022/01/01 00:24:54;;;;;;;37.58;20.50;;;;;;;;;;5051649;28;20049;-60
2022/01/01 00:27:20;;;;;;;40.55;20.75;;;;;;;;;;5050667;28;20044;-59
2022/01/01 00:29:45;;;;;;;42.55;21.17;;;;;;;;;;5050918;28;20029;-55
2022/01/01 00:32:10;;;;;;;35.65;20.35;;;;;;;;;;5050227;28;20120;-57
2022/01/01 00:34:36;;;;;;;47.47;22.30;;;;;;;;;;5048324;28;20036;-57
2022/01/01 00:37:04;;;;;;;35.47;19.85;;;;;;;;;;5040068;28;20029;-58
2022/01/01 00:39:29;;;;;;;36.22;19.45;;;;;;;;;;5041341;28;20033;-57
2022/01/01 00:41:54;;;;;;;37.00;19.38;;;;;;;;;;5038822;28;20025;-57
2022/01/01 00:44:20;;;;;;;34.53;19.85;;;;;;;;;;5041450;28;20025;-58
2022/01/01 00:46:45;;;;;;;39.80;19.25;;;;;;;;;;5044304;28;20025;-60
2022/01/01 00:49:10;;;;;;;39.30;18.90;;;;;;;;;;5044125;28;20029;-59
2022/01/01 00:51:35;;;;;;;35.15;19.02;;;;;;;;;;5043733;28;20021;-58
2022/01/01 00:54:03;;;;;;;38.60;21.65;;;;;;;;;;5043794;28;20025;-58
2022/01/01 00:56:28;;;;;;;37.78;20.23;;;;;;;;;;5044521;28;20434;-59
2022/01/01 00:58:53;;;;;;;39.53;20.02;;;;;;;;;;5045334;28;20017;-59
2022/01/01 01:01:18;;;;;;;36.75;20.33;;;;;;;;;;5035626;28;20030;-57
2022/01/01 01:03:44;;;;;;;34.25;20.10;;;;;;;;;;5033955;28;20090;-52
2022/01/01 01:06:13;;;;;;;35.80;18.83;;;;;;;;;;5034013;28;20038;-59
2022/01/01 01:08:40;;;;;;;36.80;19.93;;;;;;;;;;5043793;28;20040;-58
2022/01/01 01:11:07;;;;;;;31.38;20.92;;;;;;;;;;5060019;28;20507;-58
2022/01/01 01:13:33;;;;;;;57.45;23.77;;;;;;;;;;5053357;28;20029;-60
2022/01/01 01:15:59;;;;;;;55.22;23.38;;;;;;;;;;5035895;28;20646;-59
2022/01/01 01:18:24;;;;;;;41.33;22.05;;;;;;;;;;5041237;28;20025;-58
2022/01/01 01:20:49;;;;;;;59.05;24.10;;;;;;;;;;5053951;28;20416;-58
2022/01/01 01:23:14;;;;;;;46.72;23.40;;;;;;;;;;5054437;28;20404;-60
2022/01/01 01:25:41;;;;;;;39.97;20.42;;;;;;;;;;5053316;28;20052;-60
2022/01/01 01:28:10;;;;;;;42.72;22.40;;;;;;;;;;5054279;28;20037;-60
2022/01/01 01:30:35;;;;;;;42.53;23.60;;;;;;;;;;5053802;28;20481;-60
2022/01/01 01:33:01;;;;;;;43.20;22.38;;;;;;;;;;5055059;28;20060;-57
2022/01/01 01:35:27;;;;;;;52.50;21.00;;;;;;;;;;5054977;28;20112;-58
2022/01/01 01:37:52;;;;;;;44.85;22.60;;;;;;;;;;5056416;28;20078;-59
2022/01/01 01:40:17;;;;;;;46.70;22.58;;;;;;;;;;5055162;28;20033;-57
2022/01/01 01:42:46;;;;;;;42.33;23.00;;;;;;;;;;5054693;28;20053;-58
2022/01/01 01:45:16;;;;;;;50.13;24.48;;;;;;;;;;5055104;28;20029;-57
2022/01/01 01:47:42;;;;;;;46.20;22.42;;;;;;;;;;5053270;28;20104;-58
2022/01/01 01:50:08;;;;;;;48.10;23.15;;;;;;;;;;5055033;28;20125;-57
2022/01/01 01:52:36;;;;;;;48.05;23.88;;;;;;;;;;5054597;28;20033;-58
2022/01/01 01:55:04;;;;;;;42.25;23.10;;;;;;;;;;5054420;28;20097;-58
2022/01/01 01:57:29;;;;;;;40.67;22.13;;;;;;;;;;5054470;28;20036;-59
2022/01/01 01:59:55;;;;;;;50.10;24.02;;;;;;;;;;5055313;28;20033;-59
2022/01/01 02:02:20;;;;;;;42.50;23.23;;;;;;;;;;5055122;28;20036;-59
2022/01/01 02:04:45;;;;;;;41.05;23.45;;;;;;;;;;5055487;28;20057;-59
2022/01/01 02:07:11;;;;;;;42.85;21.50;;;;;;;;;;5053591;28;20033;-59
2022/01/01 02:09:37;;;;;;;38.92;22.15;;;;;;;;;;5054842;28;20025;-59
2022/01/01 02:12:03;;;;;;;43.95;22.58;;;;;;;;;;5054991;28;20036;-59
2022/01/01 02:14:49;;;;;;;50.63;24.73;;;;;;;;;;5054621;28;20063;-60
2022/01/01 02:17:15;;;;;;;45.20;23.25;;;;;;;;;;5054774;28;20029;-59
2022/01/01 02:19:47;;;;;;;39.40;22.73;;;;;;;;;;5055155;28;20495;-59
2022/01/01 02:22:12;;;;;;;41.28;23.58;;;;;;;;;;5054372;28;20059;-59
2022/01/01 02:24:37;;;;;;;39.78;22.98;;;;;;;;;;5054733;28;20033;-59
2022/01/01 02:27:03;;;;;;;42.70;24.05;;;;;;;;;;5054576;28;20029;-59
2022/01/01 02:29:28;;;;;;;32.03;19.92;;;;;;;;;;5054599;28;20029;-59
2022/01/01 02:31:53;;;;;;;41.13;22.60;;;;;;;;;;5053998;28;20025;-59
2022/01/01 02:34:19;;;;;;;49.83;23.70;;;;;;;;;;5054208;28;20029;-59
2022/01/01 02:36:45;;;;;;;41.55;22.88;;;;;;;;;;5054191;28;20017;-59
2022/01/01 02:39:14;;;;;;;41.80;22.73;;;;;;;;;;5054497;28;20037;-59
2022/01/01 02:41:40;;;;;;;44.38;23.13;;;;;;;;;;5054341;28;20021;-59
2022/01/01 02:44:06;;;;;;;39.10;21.17;;;;;;;;;;5054789;28;20033;-59
2022/01/01 02:46:32;;;;;;;43.92;23.98;;;;;;;;;;5054170;28;20100;-59
2022/01/01 02:48:58;;;;;;;36.20;23.02;;;;;;;;;;5054156;28;20029;-59
2022/01/01 02:51:23;;;;;;;44.13;22.75;;;;;;;;;;5054071;28;20534;-59
2022/01/01 02:53:48;;;;;;;45.15;22.85;;;;;;;;;;5053816;28;20134;-59
2022/01/01 02:56:13;;;;;;;39.13;22.45;;;;;;;;;;5054382;28;20021;-57
2022/01/01 02:58:39;;;;;;;42.55;24.00;;;;;;;;;;5054617;28;20017;-59
2022/01/01 03:01:04;;;;;;;46.47;23.30;;;;;;;;;;5054192;28;20025;-59
2022/01/01 03:03:30;;;;;;;36.60;23.58;;;;;;;;;;5053558;28;20048;-59
2022/01/01 03:05:55;;;;;;;41.50;23.58;;;;;;;;;;5053597;28;20420;-59
2022/01/01 03:08:20;;;;;;;41.55;23.95;;;;;;;;;;5052831;28;20461;-59
2022/01/01 03:10:47;;;;;;;37.22;23.50;;;;;;;;;;5054406;28;20067;-59
2022/01/01 03:13:12;;;;;;;46.05;23.15;;;;;;;;;;5054115;28;20025;-59
2022/01/01 03:15:37;;;;;;;41.78;22.85;;;;;;;;;;5053556;28;20025;-59
2022/01/01 03:18:03;;;;;;;39.50;24.67;;;;;;;;;;5053566;28;20025;-59
2022/01/01 03:20:28;;;;;;;39.30;23.13;;;;;;;;;;5053295;28;20110;-59
2022/01/01 03:22:53;;;;;;;48.03;23.73;;;;;;;;;;5053663;28;20064;-59
2022/01/01 03:25:18;;;;;;;41.17;23.80;;;;;;;;;;5053544;28;20060;-59
2022/01/01 03:27:43;;;;;;;41.35;24.13;;;;;;;;;;5053200;28;20025;-59
2022/01/01 03:30:09;;;;;;;40.33;23.02;;;;;;;;;;5054334;28;20036;-59
2022/01/01 03:32:34;;;;;;;41.75;23.00;;;;;;;;;;5052304;28;20052;-59
2022/01/01 03:34:59;;;;;;;37.95;21.90;;;;;;;;;;5053414;28;20134;-59
2022/01/01 03:37:25;;;;;;;40.85;22.05;;;;;;;;;;5053053;28;20053;-59
2022/01/01 03:39:50;;;;;;;40.97;21.63;;;;;;;;;;5053318;28;20041;-59
2022/01/01 03:42:15;;;;;;;38.38;21.90;;;;;;;;;;5053370;28;20040;-59
2022/01/01 03:44:41;;;;;;;42.75;22.58;;;;;;;;;;5053066;28;20060;-60
2022/01/01 03:47:09;;;;;;;36.85;22.27;;;;;;;;;;5054164;28;20021;-60
2022/01/01 03:49:35;;;;;;;38.72;21.38;;;;;;;;;;5053188;28;20036;-60
2022/01/01 03:52:00;;;;;;;34.10;21.50;;;;;;;;;;5052814;28;20033;-59
2022/01/01 03:54:26;;;;;;;44.60;22.23;;;;;;;;;;5053331;28;20040;-59
2022/01/01 03:56:51;;;;;;;35.67;20.25;;;;;;;;;;5053103;28;20029;-59
2022/01/01 03:59:16;;;;;;;35.42;20.45;;;;;;;;;;5053107;28;20025;-59
2022/01/01 04:01:41;;;;;;;41.60;20.75;;;;;;;;;;5053337;28;20033;-59
2022/01/01 04:04:06;;;;;;;33.53;21.00;;;;;;;;;;5052856;28;20031;-59
2022/01/01 04:06:32;;;;;;;46.20;20.70;;;;;;;;;;5052584;28;20036;-59
2022/01/01 04:08:57;;;;;;;34.40;21.60;;;;;;;;;;5052540;28;20133;-59
2022/01/01 04:11:22;;;;;;;39.25;21.15;;;;;;;;;;5053167;28;20124;-60
2022/01/01 04:13:48;;;;;;;42.47;19.90;;;;;;;;;;5053328;28;20067;-59
2022/01/01 04:16:13;;;;;;;36.45;20.15;;;;;;;;;;5052840;28;20029;-59
2022/01/01 04:18:38;;;;;;;35.92;19.90;;;;;;;;;;5052607;28;20029;-59
2022/01/01 04:21:07;;;;;;;42.03;20.55;;;;;;;;;;5052362;28;20072;-60
2022/01/01 04:23:33;;;;;;;33.75;18.73;;;;;;;;;;5052334;28;20045;-59
2022/01/01 04:25:58;;;;;;;35.10;19.40;;;;;;;;;;5053131;28;20043;-59
2022/01/01 04:28:23;;;;;;;34.83;18.83;;;;;;;;;;5053592;28;20597;-58
2022/01/01 04:30:49;;;;;;;33.97;18.85;;;;;;;;;;5052291;28;20037;-59
2022/01/01 04:33:14;;;;;;;29.17;17.73;;;;;;;;;;5052704;28;20040;-58
2022/01/01 04:35:39;;;;;;;39.17;20.45;;;;;;;;;;5052545;28;20045;-59
2022/01/01 04:38:08;;;;;;;34.03;17.25;;;;;;;;;;5052628;28;20045;-58
2022/01/01 04:40:34;;;;;;;27.85;14.98;;;;;;;;;;5052396;28;20389;-59
2022/01/01 04:42:59;;;;;;;30.05;16.38;;;;;;;;;;5052446;28;20039;-59
2022/01/01 04:45:24;;;;;;;28.13;15.65;;;;;;;;;;5052632;28;20087;-59
2022/01/01 04:47:49;;;;;;;31.23;16.52;;;;;;;;;;5052624;28;20060;-58
2022/01/01 04:50:14;;;;;;;28.40;15.27;;;;;;;;;;5052493;28;20025;-58
2022/01/01 04:52:42;;;;;;;28.10;14.90;;;;;;;;;;5052049;28;20021;-58
2022/01/01 04:55:07;;;;;;;24.63;14.77;;;;;;;;;;5052604;28;20037;-58
2022/01/01 04:57:33;;;;;;;29.50;14.18;;;;;;;;;;5052324;28;20420;-58
2022/01/01 04:59:58;;;;;;;28.88;15.93;;;;;;;;;;5052149;28;20040;-58
2022/01/01 05:02:24;;;;;;;22.50;12.57;;;;;;;;;;5036757;28;20047;-57
2022/01/01 05:04:50;;;;;;;28.77;14.27;;;;;;;;;;5032489;28;20137;-58
2022/01/01 05:07:15;;;;;;;27.50;14.00;;;;;;;;;;5031918;28;20041;-59
2022/01/01 05:09:40;;;;;;;21.45;13.75;;;;;;;;;;5050210;28;20083;-59
2022/01/01 05:12:06;;;;;;;23.50;12.55;;;;;;;;;;5051976;28;20086;-58
2022/01/01 05:14:33;;;;;;;25.52;13.30;;;;;;;;;;5050307;28;20037;-59
2022/01/01 05:16:58;;;;;;;24.50;12.23;;;;;;;;;;5052018;28;20029;-59
2022/01/01 05:19:24;;;;;;;23.20;11.82;;;;;;;;;;5052172;28;20087;-59
2022/01/01 05:21:50;;;;;;;25.08;12.77;;;;;;;;;;5051550;28;20258;-59
2022/01/01 05:24:18;;;;;;;26.17;12.77;;;;;;;;;;5052851;28;20133;-58
2022/01/01 05:26:44;;;;;;;24.02;12.85;;;;;;;;;;5051880;28;20094;-58
2022/01/01 05:29:09;;;;;;;26.50;12.38;;;;;;;;;;5052424;28;20017;-58
2022/01/01 05:31:34;;;;;;;22.83;13.63;;;;;;;;;;5054290;28;20083;-58
2022/01/01 05:33:59;;;;;;;26.38;12.18;;;;;;;;;;5055416;28;20064;-58
2022/01/01 05:36:24;;;;;;;21.60;10.60;;;;;;;;;;5055511;28;20033;-58
2022/01/01 05:38:50;;;;;;;23.30;11.50;;;;;;;;;;5055355;28;20354;-58
2022/01/01 05:41:15;;;;;;;21.98;10.85;;;;;;;;;;5055426;28;20017;-58
2022/01/01 05:43:40;;;;;;;20.77;10.43;;;;;;;;;;5055640;28;20438;-59
2022/01/01 05:46:05;;;;;;;22.95;11.30;;;;;;;;;;5055431;28;20076;-59
2022/01/01 05:48:32;;;;;;;19.63;10.57;;;;;;;;;;5055226;28;20033;-59
2022/01/01 05:50:57;;;;;;;22.00;10.20;;;;;;;;;;5055301;28;20032;-59
2022/01/01 05:53:23;;;;;;;21.38;11.45;;;;;;;;;;5055080;28;20461;-59
2022/01/01 05:55:48;;;;;;;20.13;10.95;;;;;;;;;;5055642;28;20029;-58
2022/01/01 05:58:14;;;;;;;23.33;10.68;;;;;;;;;;5055212;28;20108;-59
2022/01/01 06:00:39;;;;;;;21.40;10.90;;;;;;;;;;5055229;28;20025;-59
2022/01/01 06:03:04;;;;;;;17.38;10.25;;;;;;;;;;5053563;28;20045;-59
2022/01/01 06:05:30;;;;;;;22.90;10.13;;;;;;;;;;5054876;28;20044;-59
2022/01/01 06:07:56;;;;;;;29.10;12.40;;;;;;;;;;5055228;28;20009;-59
2022/01/01 06:10:21;;;;;;;20.02;10.80;;;;;;;;;;5054775;28;20363;-58
2022/01/01 06:12:47;;;;;;;21.38;9.93;;;;;;;;;;5054877;28;20041;-58
2022/01/01 06:15:12;;;;;;;19.60;11.25;;;;;;;;;;5054726;28;20037;-59
2022/01/01 06:17:37;;;;;;;21.25;10.45;;;;;;;;;;5054930;28;20120;-58
2022/01/01 06:20:03;;;;;;;22.08;11.10;;;;;;;;;;5056167;28;20024;-58
2022/01/01 06:22:28;;;;;;;16.95;10.18;;;;;;;;;;5054282;28;20044;-58
2022/01/01 06:24:53;;;;;;;21.73;10.57;;;;;;;;;;5054593;28;20032;-58
2022/01/01 06:27:18;;;;;;;20.00;10.07;;;;;;;;;;5054616;28;20037;-59
2022/01/01 06:29:45;;;;;;;15.77;9.90;;;;;;;;;;5054588;28;20108;-58
2022/01/01 06:32:11;;;;;;;18.52;9.00;;;;;;;;;;5055320;28;20445;-59
2022/01/01 06:34:36;;;;;;;18.88;9.63;;;;;;;;;;5054292;28;20090;-58
2022/01/01 06:37:01;;;;;;;19.20;10.27;;;;;;;;;;5054535;28;20029;-59
2022/01/01 06:39:26;;;;;;;17.10;8.90;;;;;;;;;;5054449;28;20138;-60
2022/01/01 06:41:51;;;;;;;22.00;9.60;;;;;;;;;;5054482;28;20025;-59
2022/01/01 06:44:17;;;;;;;15.38;9.00;;;;;;;;;;5054383;28;20033;-59
2022/01/01 06:46:43;;;;;;;20.05;10.15;;;;;;;;;;5054699;28;20044;-59
2022/01/01 06:49:08;;;;;;;17.67;9.70;;;;;;;;;;5054459;28;20036;-59
2022/01/01 06:51:33;;;;;;;24.00;10.35;;;;;;;;;;5054146;28;20033;-59
2022/01/01 06:53:58;;;;;;;20.13;10.68;;;;;;;;;;5053722;28;20094;-59
2022/01/01 06:56:24;;;;;;;16.63;9.73;;;;;;;;;;5054016;28;20029;-59
2022/01/01 06:58:49;;;;;;;19.00;8.90;;;;;;;;;;5054837;28;20025;-59
2022/01/01 07:01:14;;;;;;;20.38;9.38;;;;;;;;;;5054090;28;20451;-59
2022/01/01 07:03:39;;;;;;;15.50;8.93;;;;;;;;;;5052377;28;20044;-59
2022/01/01 07:06:05;;;;;;;20.75;9.75;;;;;;;;;;5054144;28;20017;-59
2022/01/01 07:08:30;;;;;;;15.07;8.30;;;;;;;;;;5044354;28;20036;-59
2022/01/01 07:10:55;;;;;;;17.45;9.90;;;;;;;;;;5035484;28;20018;-59
2022/01/01 07:13:21;;;;;;;18.20;8.85;;;;;;;;;;5053753;28;20029;-59
2022/01/01 07:15:46;;;;;;;16.45;8.20;;;;;;;;;;5053302;28;20044;-59
2022/01/01 07:18:11;;;;;;;18.67;9.57;;;;;;;;;;5053821;28;20111;-59
2022/01/01 07:20:36;;;;;;;17.80;9.60;;;;;;;;;;5053696;28;20091;-59
2022/01/01 07:23:02;;;;;;;14.32;7.88;;;;;;;;;;5051168;28;20452;-59
2022/01/01 07:25:28;;;;;;;20.08;9.80;;;;;;;;;;5053633;28;20091;-59
2022/01/01 07:27:54;;;;;;;21.33;9.52;;;;;;;;;;5053623;28;20033;-59
2022/01/01 07:30:19;;;;;;;16.55;9.48;;;;;;;;;;5052037;28;20584;-59
2022/01/01 07:32:46;;;;;;;15.93;8.73;;;;;;;;;;5053237;28;20057;-59
2022/01/01 07:35:12;;;;;;;15.18;8.65;;;;;;;;;;5054014;28;20033;-59
2022/01/01 07:37:37;;;;;;;14.88;9.68;;;;;;;;;;5053379;28;20033;-59
2022/01/01 07:40:04;;;;;;;15.43;8.65;;;;;;;;;;5053119;28;20098;-59
2022/01/01 07:42:29;;;;;;;17.25;8.63;;;;;;;;;;5053184;28;20041;-59
2022/01/01 07:44:54;;;;;;;20.88;10.45;;;;;;;;;;5052939;28;20036;-59
2022/01/01 07:47:19;;;;;;;15.45;8.25;;;;;;;;;;5053068;28;20021;-58
2022/01/01 07:49:44;;;;;;;13.80;8.18;;;;;;;;;;5053612;28;20025;-59
2022/01/01 07:52:11;;;;;;;14.90;8.02;;;;;;;;;;5053091;28;20393;-59
2022/01/01 07:54:36;;;;;;;13.90;8.98;;;;;;;;;;5052634;28;20063;-58
2022/01/01 07:57:03;;;;;;;20.25;9.45;;;;;;;;;;5052843;28;20033;-59
2022/01/01 07:59:28;;;;;;;14.98;8.68;;;;;;;;;;5053026;28;20033;-59
2022/01/01 08:01:54;;;;;;;15.55;7.07;;;;;;;;;;5052029;28;20021;-60
2022/01/01 08:04:19;;;;;;;13.52;6.68;;;;;;;;;;5051154;28;20130;-54
2022/01/01 08:06:44;;;;;;;15.55;7.18;;;;;;;;;;5052109;28;20025;-54
2022/01/01 08:09:09;;;;;;;11.60;6.80;;;;;;;;;;5050663;28;20033;-54
2022/01/01 08:11:35;;;;;;;11.88;6.70;;;;;;;;;;5052889;28;20036;-56
2022/01/01 08:14:00;;;;;;;11.15;6.32;;;;;;;;;;5052993;28;20033;-56
2022/01/01 08:16:25;;;;;;;9.57;5.93;;;;;;;;;;5051240;28;20363;-56
2022/01/01 08:18:50;;;;;;;13.82;5.88;;;;;;;;;;5052139;28;20029;-56
2022/01/01 08:21:16;;;;;;;10.55;6.60;;;;;;;;;;5052179;28;20119;-56
2022/01/01 08:23:41;;;;;;;10.13;5.80;;;;;;;;;;5051460;28;20128;-55
2022/01/01 08:26:06;;;;;;;13.45;5.95;;;;;;;;;;5052399;28;20043;-56
2022/01/01 08:28:31;;;;;;;10.02;5.32;;;;;;;;;;5052088;28;20021;-56
2022/01/01 08:30:57;;;;;;;10.57;6.07;;;;;;;;;;5051856;28;20083;-55
2022/01/01 08:33:22;;;;;;;9.82;5.10;;;;;;;;;;5052229;28;20047;-57
2022/01/01 08:35:47;;;;;;;9.05;4.85;;;;;;;;;;5051926;28;20086;-56
2022/01/01 08:38:13;;;;;;;8.80;4.97;;;;;;;;;;5052059;28;20021;-56
2022/01/01 08:40:39;;;;;;;8.93;4.60;;;;;;;;;;5072262;28;20048;-55
2022/01/01 08:43:04;;;;;;;11.57;4.85;;;;;;;;;;5071962;28;20071;-52
2022/01/01 08:45:30;;;;;;;11.75;5.15;;;;;;;;;;5072043;28;20029;-54
2022/01/01 08:47:55;;;;;;;11.02;5.28;;;;;;;;;;5071409;28;20082;-52
2022/01/01 08:50:20;;;;;;;11.63;5.30;;;;;;;;;;5070820;28;20056;-55
2022/01/01 08:52:45;;;;;;;8.85;4.60;;;;;;;;;;5071115;28;20025;-56
2022/01/01 08:55:11;;;;;;;7.88;3.90;;;;;;;;;;5070686;28;20400;-56
2022/01/01 08:57:36;;;;;;;9.50;4.47;;;;;;;;;;5070928;28;20028;-56
2022/01/01 09:00:03;;;;;;;9.32;4.65;;;;;;;;;;5070810;28;20037;-56
2022/01/01 09:02:29;;;;;;;8.07;3.92;;;;;;;;;;5070821;28;20032;-55
2022/01/01 09:04:54;;;;;;;12.85;4.43;;;;;;;;;;5071401;28;20032;-54
2022/01/01 09:07:19;;;;;;;9.80;3.80;;;;;;;;;;5074829;28;20067;-54
2022/01/01 09:09:45;;;;;;;6.72;3.70;;;;;;;;;;5075751;28;20033;-56
2022/01/01 09:12:11;;;;;;;7.97;4.40;;;;;;;;;;5074812;28;20523;-56
2022/01/01 09:14:36;;;;;;;8.45;3.88;;;;;;;;;;5072095;28;20056;-56
2022/01/01 09:17:02;;;;;;;7.80;3.83;;;;;;;;;;5075191;28;20020;-57
2022/01/01 09:19:27;;;;;;;6.22;3.75;;;;;;;;;;5073879;28;20059;-57
2022/01/01 09:21:52;;;;;;;6.70;4.00;;;;;;;;;;5073831;28;20035;-54
2022/01/01 09:24:18;;;;;;;8.68;4.00;;;;;;;;;;5073587;28;20047;-55
2022/01/01 09:26:43;;;;;;;6.15;3.25;;;;;;;;;;5073721;28;20111;-54
2022/01/01 09:29:10;;;;;;;6.75;4.20;;;;;;;;;;5074063;28;20024;-53
2022/01/01 09:31:36;;;;;;;8.93;3.78;;;;;;;;;;5073360;28;20025;-55
2022/01/01 09:34:03;;;;;;;6.80;3.58;;;;;;;;;;5073651;28;20037;-55
2022/01/01 09:36:29;;;;;;;8.00;4.45;;;;;;;;;;5072002;28;20089;-54
2022/01/01 09:38:54;;;;;;;7.35;4.25;;;;;;;;;;5072647;28;20100;-55
2022/01/01 09:41:19;;;;;;;9.57;4.05;;;;;;;;;;5072687;28;20054;-55
2022/01/01 09:43:44;;;;;;;5.97;3.77;;;;;;;;;;5073763;28;20028;-54
2022/01/01 09:46:12;;;;;;;6.30;3.20;;;;;;;;;;5073319;28;20464;-55
2022/01/01 09:48:38;;;;;;;7.82;3.55;;;;;;;;;;5072489;28;20040;-55
2022/01/01 09:51:03;;;;;;;5.72;3.38;;;;;;;;;;5073024;28;20025;-52
2022/01/01 09:53:29;;;;;;;7.15;3.30;;;;;;;;;;5074486;28;20033;-53
2022/01/01 09:55:55;;;;;;;6.25;3.50;;;;;;;;;;5075239;28;20009;-55
2022/01/01 09:58:25;;;;;;;8.60;3.47;;;;;;;;;;5072805;28;20108;-54
2022/01/01 10:00:52;;;;;;;6.68;2.97;;;;;;;;;;5075389;28;20186;-52
2022/01/01 10:03:17;;;;;;;13.57;3.53;;;;;;;;;;5075275;28;20094;-54
2022/01/01 10:05:56;;;;;;;5.75;2.95;;;;;;;;;;5076138;28;20032;-55
2022/01/01 10:08:22;;;;;;;8.55;3.03;;;;;;;;;;5072664;28;20393;-53
2022/01/01 10:10:49;;;;;;;6.50;3.25;;;;;;;;;;5075585;28;20033;-54
2022/01/01 10:13:16;;;;;;;6.72;2.97;;;;;;;;;;5074965;28;20040;-55
2022/01/01 10:15:41;;;;;;;7.75;2.90;;;;;;;;;;5071955;28;20082;-52
2022/01/01 10:18:06;;;;;;;8.00;3.27;;;;;;;;;;5064759;28;20044;-55
2022/01/01 10:20:35;;;;;;;5.72;3.28;;;;;;;;;;5070928;28;20434;-53
2022/01/01 10:23:10;;;;;;;6.03;3.45;;;;;;;;;;5070978;28;20342;-53
2022/01/01 10:28:21;;;;;;;6.07;3.22;;;;;;;;;;5068915;28;20040;-55
2022/01/01 10:30:48;;;;;;;4.47;2.90;;;;;;;;;;5068295;28;20020;-54
2022/01/01 10:33:17;;;;;;;6.22;2.95;;;;;;;;;;5070743;28;20106;-53
2022/01/01 10:35:43;;;;;;;8.73;3.10;;;;;;;;;;5071207;28;20027;-54
2022/01/01 10:38:26;;;;;;;7.03;2.90;;;;;;;;;;5072010;28;20029;-53
2022/01/01 10:40:56;;;;;;;6.28;3.20;;;;;;;;;;5071477;28;20048;-53
2022/01/01 10:43:33;;;;;;;5.07;2.50;;;;;;;;;;5070282;28;20040;-54
2022/01/01 10:45:58;;;;;;;6.13;3.00;;;;;;;;;;5070667;28;20032;-54
2022/01/01 10:48:39;;;;;;;4.15;2.75;;;;;;;;;;5071023;28;20601;-54
2022/01/01 10:51:07;;;;;;;9.38;2.85;;;;;;;;;;5071450;28;20032;-53
2022/01/01 10:53:32;;;;;;;5.75;3.00;;;;;;;;;;5068666;28;20387;-49
2022/01/01 10:55:58;;;;;;;4.97;3.00;;;;;;;;;;5069777;28;20021;-50
2022/01/01 10:58:26;;;;;;;8.13;3.10;;;;;;;;;;5069185;28;20036;-52
2022/01/01 11:00:52;;;;;;;7.35;3.20;;;;;;;;;;5069140;28;20099;-51
2022/01/01 11:03:18;;;;;;;13.48;2.78;;;;;;;;;;5069070;28;20060;-50
2022/01/01 11:05:44;;;;;;;5.50;2.72;;;;;;;;;;5068893;28;20032;-48
2022/01/01 11:08:29;;;;;;;4.45;1.95;;;;;;;;;;5068981;28;20031;-51
2022/01/01 11:10:55;;;;;;;5.53;2.30;;;;;;;;;;5068532;28;20033;-51
2022/01/01 11:13:20;;;;;;;5.63;2.70;;;;;;;;;;5068704;28;20055;-47
2022/01/01 11:15:45;;;;;;;5.78;2.55;;;;;;;;;;5065963;28;20032;-51
2022/01/01 11:18:12;;;;;;;6.53;2.47;;;;;;;;;;5068033;28;20558;-49
2022/01/01 11:20:39;;;;;;;6.78;2.38;;;;;;;;;;5067219;28;20115;-49
2022/01/01 11:23:06;;;;;;;4.65;2.28;;;;;;;;;;5068703;28;20821;-49
2022/01/01 11:25:32;;;;;;;5.97;2.50;;;;;;;;;;5067994;28;20028;-47
2022/01/01 11:27:58;;;;;;;4.55;2.63;;;;;;;;;;5066031;28;20071;-49
2022/01/01 11:30:25;;;;;;;4.45;2.00;;;;;;;;;;5069043;28;20032;-49
2022/01/01 11:33:00;;;;;;;4.60;2.17;;;;;;;;;;5068324;28;20496;-49
2022/01/01 11:35:30;;;;;;;8.52;2.38;;;;;;;;;;5099479;28;20613;-47
2022/01/01 11:38:00;;;;;;;6.40;2.85;;;;;;;;;;5068603;28;20499;-49
2022/01/01 11:40:26;;;;;;;4.80;2.45;;;;;;;;;;5069286;28;20089;-50
2022/01/01 11:42:51;;;;;;;3.70;2.17;;;;;;;;;;5068038;28;20021;-53
2022/01/01 11:45:38;;;;;;;7.90;2.22;;;;;;;;;;5068184;28;20040;-52
2022/01/01 11:48:22;;;;;;;4.35;2.13;;;;;;;;;;5067897;28;20021;-52
2022/01/01 11:50:47;;;;;;;6.70;2.58;;;;;;;;;;5068332;28;20036;-51
2022/01/01 11:53:28;;;;;;;4.72;2.10;;;;;;;;;;5067758;28;20032;-53
2022/01/01 11:56:06;;;;;;;4.63;2.15;;;;;;;;;;5067544;28;20115;-51
2022/01/01 11:58:51;;;;;;;10.10;2.45;;;;;;;;;;5068960;28;20037;-52
2022/01/01 12:01:21;;;;;;;7.15;2.85;;;;;;;;;;5068251;28;20095;-53
2022/01/01 12:03:48;;;;;;;4.80;2.03;;;;;;;;;;5067756;28;20460;-52
2022/01/01 12:06:13;;;;;;;8.23;2.70;;;;;;;;;;5067277;28;20040;-51
2022/01/01 12:08:43;;;;;;;5.05;2.15;;;;;;;;;;5066510;28;20020;-53
2022/01/01 12:11:08;;;;;;;4.80;1.92;;;;;;;;;;5067881;28;20028;-50
2022/01/01 12:13:38;;;;;;;4.93;2.58;;;;;;;;;;5067710;28;20033;-48
2022/01/01 12:16:24;;;;;;;4.80;1.83;;;;;;;;;;5067575;28;20093;-48
2022/01/01 12:18:49;;;;;;;4.28;1.90;;;;;;;;;;5066550;28;20051;-49
2022/01/01 12:21:22;;;;;;;3.88;2.03;;;;;;;;;;5067942;28;20032;-48
2022/01/01 12:23:48;;;;;;;4.28;2.05;;;;;;;;;;5067132;28;20345;-47
2022/01/01 12:26:14;;;;;;;7.75;2.40;;;;;;;;;;5065660;28;20035;-50
2022/01/01 12:28:42;;;;;;;4.30;2.03;;;;;;;;;;5067175;28;20017;-50
2022/01/01 12:31:07;;;;;;;3.05;1.80;;;;;;;;;;5068080;28;20048;-49
2022/01/01 12:33:39;;;;;;;6.53;2.00;;;;;;;;;;5067476;28;20135;-47
2022/01/01 12:36:23;;;;;;;3.38;2.10;;;;;;;;;;5066250;28;20029;-48
2022/01/01 12:38:49;;;;;;;4.85;2.08;;;;;;;;;;5067217;28;20181;-51
2022/01/01 12:41:16;;;;;;;2.63;1.80;;;;;;;;;;5071211;28;20032;-49
2022/01/01 12:43:42;;;;;;;5.20;2.30;;;;;;;;;;5072357;28;20032;-48
2022/01/01 12:46:08;;;;;;;4.75;2.35;;;;;;;;;;5070865;28;20029;-49
2022/01/01 12:48:33;;;;;;;7.63;2.22;;;;;;;;;;5069664;28;20134;-49
2022/01/01 12:51:00;;;;;;;3.78;2.13;;;;;;;;;;5072067;28;20176;-48
2022/01/01 12:53:25;;;;;;;4.70;2.08;;;;;;;;;;5072865;28;20429;-47
2022/01/01 12:56:00;;;;;;;8.98;2.88;;;;;;;;;;5072154;28;20055;-51
2022/01/01 12:58:30;;;;;;;2.70;1.77;;;;;;;;;;5072533;28;20036;-49
2022/01/01 13:00:55;;;;;;;2.85;1.55;;;;;;;;;;5069400;28;20066;-51
2022/01/01 13:03:20;;;;;;;4.60;2.15;;;;;;;;;;5071771;28;20510;-49
2022/01/01 13:05:45;;;;;;;3.38;2.10;;;;;;;;;;5072288;28;20041;-55
2022/01/01 13:08:11;;;;;;;4.03;1.80;;;;;;;;;;5071670;28;20062;-51
2022/01/01 13:10:37;;;;;;;3.78;2.33;;;;;;;;;;5071636;28;20161;-50
2022/01/01 13:13:06;;;;;;;5.35;2.67;;;;;;;;;;5071946;28;20722;-51
2022/01/01 13:15:33;;;;;;;3.25;1.85;;;;;;;;;;5071323;28;20484;-52
2022/01/01 13:18:02;;;;;;;2.90;1.73;;;;;;;;;;5071023;28;20037;-53
2022/01/01 13:20:28;;;;;;;3.88;2.03;;;;;;;;;;5072021;28;20036;-50
2022/01/01 13:23:05;;;;;;;3.83;2.23;;;;;;;;;;5071242;28;20044;-51
2022/01/01 13:25:31;;;;;;;3.85;2.03;;;;;;;;;;5071072;28;20493;-54
2022/01/01 13:27:57;;;;;;;4.55;2.33;;;;;;;;;;5071067;28;20056;-54
2022/01/01 13:30:24;;;;;;;4.55;1.90;;;;;;;;;;5071826;28;20373;-52
2022/01/01 13:32:49;;;;;;;4.18;2.03;;;;;;;;;;5071119;28;20085;-52
2022/01/01 13:35:27;;;;;;;4.13;2.17;;;;;;;;;;5071248;28;20016;-54
2022/01/01 13:37:53;;;;;;;4.68;2.20;;;;;;;;;;5069813;28;20103;-53
2022/01/01 13:40:19;;;;;;;5.00;2.03;;;;;;;;;;5068742;28;20652;-52
2022/01/01 13:42:44;;;;;;;2.88;1.48;;;;;;;;;;5070633;28;20025;-53
2022/01/01 13:45:10;;;;;;;4.03;1.75;;;;;;;;;;5070638;28;20442;-54
2022/01/01 13:47:35;;;;;;;3.08;2.08;;;;;;;;;;5070273;28;20112;-57
2022/01/01 13:50:10;;;;;;;3.45;1.83;;;;;;;;;;5068928;28;20059;-54
2022/01/01 13:52:36;;;;;;;3.50;2.10;;;;;;;;;;5068225;28;20021;-54
2022/01/01 13:55:07;;;;;;;4.30;1.92;;;;;;;;;;5066585;28;20468;-52
2022/01/01 13:57:32;;;;;;;;;;;;;;;;;;5103358;28;20583;-52
2022/01/01 13:59:58;;;;;;;2.78;1.67;;;;;;;;;;5066760;28;19916;-51
2022/01/01 14:02:27;;;;;;;6.90;2.17;;;;;;;;;;5071215;28;20361;-53
2022/01/01 14:04:55;;;;;;;8.00;2.25;;;;;;;;;;5074284;28;20027;-53
2022/01/01 14:07:20;;;;;;;3.35;1.88;;;;;;;;;;5073549;28;20027;-53
2022/01/01 14:10:05;;;;;;;5.30;2.10;;;;;;;;;;5071998;28;20481;-51
2022/01/01 14:12:31;;;;;;;6.00;2.40;;;;;;;;;;5073062;28;20081;-49
2022/01/01 14:15:04;;;;;;;6.75;1.75;;;;;;;;;;5072838;28;20025;-52
2022/01/01 14:17:48;;;;;;;3.15;1.50;;;;;;;;;;5072226;28;20020;-51
2022/01/01 14:20:20;;;;;;;3.17;1.80;;;;;;;;;;5072577;28;20029;-53
2022/01/01 14:22:45;;;;;;;5.15;1.80;;;;;;;;;;5072250;28;20036;-54
2022/01/01 14:25:12;;;;;;;4.10;2.00;;;;;;;;;;5071918;28;20074;-56
2022/01/01 14:27:37;;;;;;;4.45;2.55;;;;;;;;;;5071856;28;20037;-56